createdAt,value
2022-10-23T00:00:29.862Z,8.11
2022-10-23T00:03:27.163Z,8.09
2022-10-23T00:06:25.817Z,7.94
2022-10-23T00:09:24.860Z,7.95
2022-10-23T00:12:21.685Z,8.19
2022-10-23T00:15:22.699Z,8.18
2022-10-23T00:18:19.528Z,7.98
2022-10-23T00:21:18.383Z,8.02
2022-10-23T00:24:15.347Z,8.01
2022-10-23T00:27:12.166Z,7.92
2022-10-23T00:30:09.560Z,7.98
2022-10-23T00:33:06.455Z,7.80
2022-10-23T00:36:09.284Z,7.81
2022-10-23T00:39:06.700Z,7.88
2022-10-23T00:42:04.009Z,7.84
2022-10-23T00:45:22.810Z,7.84
2022-10-23T00:48:19.794Z,7.98
2022-10-23T00:51:17.070Z,7.78
2022-10-23T00:54:24.987Z,7.89
2022-10-23T00:57:22.412Z,7.55
2022-10-23T01:00:28.233Z,7.70
2022-10-23T01:03:28.445Z,7.65
2022-10-23T01:07:11.424Z,7.59
2022-10-23T01:10:32.267Z,7.72
2022-10-23T01:13:57.251Z,7.67
2022-10-23T01:17:12.457Z,7.52
2022-10-23T01:20:50.623Z,7.52
2022-10-23T01:24:15.055Z,7.40
2022-10-23T01:27:40.747Z,7.36
2022-10-23T01:30:42.776Z,7.42
2022-10-23T01:33:51.381Z,7.56
2022-10-23T01:36:51.105Z,7.45
2022-10-23T01:39:53.707Z,7.22
2022-10-23T01:42:56.660Z,7.38
2022-10-23T01:46:05.555Z,7.14
2022-10-23T01:49:05.591Z,7.16
2022-10-23T01:52:06.483Z,7.15
2022-10-23T01:55:04.583Z,7.23
2022-10-23T01:58:02.656Z,7.16
2022-10-23T02:01:03.797Z,7.29
2022-10-23T02:04:03.733Z,7.14
2022-10-23T02:07:00.641Z,7.05
2022-10-23T02:09:57.969Z,7.27
2022-10-23T02:13:07.760Z,7.20
2022-10-23T02:16:13.195Z,7.14
2022-10-23T02:19:24.702Z,7.18
2022-10-23T02:22:29.687Z,7.02
2022-10-23T02:25:42.152Z,7.08
2022-10-23T02:28:45.944Z,7.20
2022-10-23T02:31:42.968Z,7.05
2022-10-23T02:34:39.883Z,6.98
2022-10-23T02:37:36.939Z,7.00
2022-10-23T02:40:43.649Z,6.89
2022-10-23T02:44:13.714Z,7.07
2022-10-23T02:47:32.280Z,6.91
2022-10-23T02:51:14.873Z,6.97
2022-10-23T02:54:20.112Z,7.02
2022-10-23T02:57:41.891Z,6.90
2022-10-23T03:00:46.569Z,6.95
2022-10-23T03:03:53.491Z,7.05
2022-10-23T03:06:51.584Z,6.96
2022-10-23T03:09:48.667Z,6.87
2022-10-23T03:12:47.085Z,6.95
2022-10-23T03:15:44.395Z,7.14
2022-10-23T03:18:41.331Z,7.00
2022-10-23T03:21:38.147Z,7.03
2022-10-23T03:24:34.999Z,7.10
2022-10-23T03:27:32.288Z,7.05
2022-10-23T03:30:29.119Z,7.07
2022-10-23T03:33:26.005Z,6.92
2022-10-23T03:36:22.850Z,6.93
2022-10-23T03:39:19.692Z,7.01
2022-10-23T03:42:16.816Z,6.72
2022-10-23T03:45:13.740Z,6.90
2022-10-23T03:48:10.823Z,6.91
2022-10-23T03:51:07.970Z,6.91
2022-10-23T03:54:04.899Z,6.83
2022-10-23T03:57:02.294Z,7.04
2022-10-23T03:59:59.143Z,6.84
2022-10-23T04:02:56.010Z,6.99
2022-10-23T04:05:52.868Z,6.95
2022-10-23T04:08:49.688Z,6.89
2022-10-23T04:11:46.580Z,6.87
2022-10-23T04:14:43.478Z,6.85
2022-10-23T04:17:40.312Z,6.91
2022-10-23T04:20:37.128Z,6.89
2022-10-23T04:23:34.485Z,6.89
2022-10-23T04:26:31.334Z,6.88
2022-10-23T04:29:31.506Z,6.73
2022-10-23T04:32:28.358Z,6.88
2022-10-23T04:35:25.199Z,6.69
2022-10-23T04:38:22.059Z,6.71
2022-10-23T04:41:19.066Z,6.89
2022-10-23T04:44:16.387Z,6.80
2022-10-23T04:47:13.248Z,6.83
2022-10-23T04:50:10.159Z,6.91
2022-10-23T04:53:09.052Z,6.85
2022-10-23T04:56:06.892Z,6.81
2022-10-23T05:02:06.137Z,6.95
2022-10-23T05:05:03.136Z,6.95
2022-10-23T05:07:59.970Z,7.02
2022-10-23T05:10:57.294Z,7.10
2022-10-23T05:13:54.110Z,7.06
2022-10-23T05:17:00.997Z,7.07
2022-10-23T05:20:01.874Z,6.97
2022-10-23T05:22:59.958Z,7.02
2022-10-23T05:25:56.863Z,6.96
2022-10-23T05:28:53.785Z,7.01
2022-10-23T05:31:56.170Z,6.96
2022-10-23T05:34:53.790Z,6.96
2022-10-23T05:37:53.538Z,6.99
2022-10-23T05:40:52.863Z,6.97
2022-10-23T05:43:49.716Z,6.84
2022-10-23T05:46:46.853Z,6.84
2022-10-23T05:49:43.688Z,6.84
2022-10-23T05:52:40.997Z,6.94
2022-10-23T05:55:38.244Z,6.83
2022-10-23T05:58:35.390Z,6.90
2022-10-23T06:01:32.314Z,6.93
2022-10-23T06:04:29.270Z,6.91
2022-10-23T06:07:31.161Z,6.78
2022-10-23T06:10:32.002Z,6.98
2022-10-23T06:13:28.887Z,6.99
2022-10-23T06:16:26.968Z,7.08
2022-10-23T06:19:23.821Z,7.10
2022-10-23T06:25:22.405Z,7.21
2022-10-23T06:28:20.698Z,7.27
2022-10-23T06:31:19.612Z,7.24
2022-10-23T06:34:16.691Z,7.30
2022-10-23T06:37:13.563Z,7.20
2022-10-23T06:40:10.669Z,7.16
2022-10-23T06:43:08.615Z,7.30
2022-10-23T06:46:06.790Z,7.38
2022-10-23T06:49:04.278Z,7.40
2022-10-23T06:52:01.110Z,7.44
2022-10-23T06:54:58.273Z,7.60
2022-10-23T06:57:55.093Z,7.63
2022-10-23T07:00:52.027Z,7.64
2022-10-23T07:03:49.516Z,7.73
2022-10-23T07:06:46.548Z,7.70
2022-10-23T07:09:43.493Z,7.80
2022-10-23T07:12:40.677Z,7.87
2022-10-23T07:15:39.613Z,7.95
2022-10-23T07:18:36.444Z,8.03
2022-10-23T07:21:35.644Z,7.96
2022-10-23T07:24:36.971Z,8.09
2022-10-23T07:27:38.434Z,7.98
2022-10-23T07:30:35.297Z,8.03
2022-10-23T07:33:32.128Z,8.12
2022-10-23T07:36:29.251Z,8.26
2022-10-23T07:39:26.222Z,8.41
2022-10-23T07:42:23.057Z,8.41
2022-10-23T07:45:19.927Z,8.70
2022-10-23T07:48:17.111Z,8.71
2022-10-23T07:51:16.813Z,8.88
2022-10-23T07:54:13.716Z,9.00
2022-10-23T07:57:12.104Z,9.05
2022-10-23T08:00:11.725Z,9.22
2022-10-23T08:03:08.665Z,9.16
2022-10-23T08:06:05.700Z,9.37
2022-10-23T08:09:06.195Z,9.34
2022-10-23T08:12:04.537Z,9.67
2022-10-23T08:15:01.345Z,9.99
2022-10-23T08:17:58.205Z,10.06
2022-10-23T08:21:02.161Z,10.23
2022-10-23T08:24:00.755Z,10.34
2022-10-23T08:26:58.590Z,10.31
2022-10-23T08:29:55.508Z,10.29
2022-10-23T08:32:52.370Z,10.70
2022-10-23T08:35:49.540Z,10.98
2022-10-23T08:38:47.093Z,11.15
2022-10-23T08:41:50.500Z,11.33
2022-10-23T08:45:06.187Z,11.32
2022-10-23T08:48:26.314Z,11.52
2022-10-23T08:51:37.855Z,12.29
2022-10-23T08:54:51.533Z,12.52
2022-10-23T08:58:25.276Z,12.93
2022-10-23T09:01:46.550Z,13.73
2022-10-23T09:04:48.538Z,14.03
2022-10-23T09:08:22.025Z,14.55
2022-10-23T09:11:47.845Z,14.22
2022-10-23T09:14:56.272Z,13.08
2022-10-23T09:18:02.131Z,13.41
2022-10-23T09:20:59.049Z,13.81
2022-10-23T09:23:56.577Z,15.18
2022-10-23T09:26:54.361Z,14.28
2022-10-23T09:29:55.668Z,14.46
2022-10-23T09:32:57.589Z,14.46
2022-10-23T09:36:05.652Z,14.10
2022-10-23T09:39:02.658Z,13.33
2022-10-23T09:42:04.319Z,14.01
2022-10-23T09:45:01.786Z,14.20
2022-10-23T09:48:19.093Z,14.62
2022-10-23T09:51:21.049Z,14.36
2022-10-23T09:54:19.446Z,13.96
2022-10-23T09:57:35.673Z,14.15
2022-10-23T10:00:32.563Z,14.00
2022-10-23T10:03:29.478Z,14.16
2022-10-23T10:06:33.282Z,14.53
2022-10-23T10:09:30.193Z,14.83
2022-10-23T10:12:43.360Z,14.82
2022-10-23T10:15:57.410Z,14.76
2022-10-23T10:18:56.844Z,14.99
2022-10-23T10:22:31.164Z,14.30
2022-10-23T10:25:43.115Z,15.26
2022-10-23T10:29:35.590Z,14.50
2022-10-23T10:32:46.511Z,15.30
2022-10-23T10:36:02.927Z,14.80
2022-10-23T10:39:11.482Z,15.10
2022-10-23T10:42:30.376Z,15.99
2022-10-23T10:45:37.456Z,16.01
2022-10-23T10:48:42.194Z,15.66
2022-10-23T10:52:16.639Z,16.09
2022-10-23T10:55:53.661Z,16.08
2022-10-23T10:58:58.021Z,16.80
2022-10-23T11:02:31.517Z,16.39
2022-10-23T11:05:38.344Z,15.52
2022-10-23T11:08:49.992Z,15.28
2022-10-23T11:11:56.071Z,15.33
2022-10-23T11:14:53.091Z,15.51
2022-10-23T11:17:59.570Z,16.05
2022-10-23T11:21:24.099Z,15.62
2022-10-23T11:24:51.527Z,15.92
2022-10-23T11:28:33.262Z,15.93
2022-10-23T11:31:45.550Z,15.60
2022-10-23T11:35:06.971Z,15.82
2022-10-23T11:38:18.155Z,16.30
2022-10-23T11:41:27.050Z,16.41
2022-10-23T11:44:47.513Z,16.24
2022-10-23T11:47:44.304Z,16.02
2022-10-23T11:50:44.185Z,15.62
2022-10-23T11:53:41.099Z,16.09
2022-10-23T11:57:10.723Z,15.95
2022-10-23T12:00:24.210Z,15.56
2022-10-23T12:04:02.503Z,15.88
2022-10-23T12:07:05.292Z,15.91
2022-10-23T12:10:36.884Z,16.55
2022-10-23T12:13:39.472Z,16.44
2022-10-23T12:16:36.576Z,17.17
2022-10-23T12:19:52.291Z,16.76
2022-10-23T12:23:20.291Z,16.20
2022-10-23T12:26:17.004Z,16.16
2022-10-23T12:29:41.899Z,16.49
2022-10-23T12:33:09.832Z,16.69
2022-10-23T12:36:50.181Z,16.67
2022-10-23T12:39:54.618Z,16.62
2022-10-23T12:42:56.335Z,15.91
2022-10-23T12:45:54.704Z,16.41
2022-10-23T12:48:54.009Z,15.89
2022-10-23T12:52:05.156Z,15.83
2022-10-23T12:55:14.252Z,16.05
2022-10-23T12:58:30.015Z,16.01
2022-10-23T13:01:29.420Z,16.08
2022-10-23T13:04:28.898Z,15.41
2022-10-23T13:07:29.258Z,15.86
2022-10-23T13:10:26.852Z,15.61
2022-10-23T13:13:25.001Z,15.81
2022-10-23T13:16:24.923Z,15.54
2022-10-23T13:19:26.960Z,15.92
2022-10-23T13:22:24.564Z,15.80
2022-10-23T13:25:32.442Z,15.68
2022-10-23T13:28:35.105Z,15.74
2022-10-23T13:31:35.619Z,15.40
2022-10-23T13:34:32.450Z,15.22
2022-10-23T13:37:30.417Z,15.03
2022-10-23T13:40:28.185Z,14.97
2022-10-23T13:43:27.010Z,15.30
2022-10-23T13:46:25.737Z,15.28
2022-10-23T13:49:22.604Z,15.33
2022-10-23T13:52:23.446Z,15.28
2022-10-23T13:55:29.339Z,15.52
2022-10-23T13:58:26.164Z,15.69
2022-10-23T14:01:32.373Z,15.55
2022-10-23T14:04:29.456Z,15.24
2022-10-23T14:07:26.650Z,15.50
2022-10-23T14:10:25.714Z,15.23
2022-10-23T14:13:24.589Z,15.13
2022-10-23T14:16:21.748Z,15.23
2022-10-23T14:19:18.606Z,15.15
2022-10-23T14:22:15.491Z,15.23
2022-10-23T14:25:12.431Z,15.16
2022-10-23T14:28:09.337Z,15.36
2022-10-23T14:31:09.613Z,15.36
2022-10-23T14:34:06.664Z,15.13
2022-10-23T14:37:08.891Z,15.73
2022-10-23T14:40:07.084Z,15.44
2022-10-23T14:43:04.466Z,15.53
2022-10-23T14:46:10.538Z,15.92
2022-10-23T14:49:07.588Z,15.40
2022-10-23T14:52:06.077Z,15.57
2022-10-23T14:55:06.330Z,15.66
2022-10-23T14:58:03.255Z,15.48
2022-10-23T15:01:01.675Z,15.05
2022-10-23T15:03:58.770Z,14.96
2022-10-23T15:06:55.628Z,14.98
2022-10-23T15:09:52.451Z,14.91
2022-10-23T15:12:49.312Z,14.53
2022-10-23T15:15:46.406Z,14.59
2022-10-23T15:18:43.572Z,14.60
2022-10-23T15:21:40.412Z,14.60
2022-10-23T15:24:37.252Z,13.94
2022-10-23T15:27:34.756Z,14.16
2022-10-23T15:30:31.644Z,13.88
2022-10-23T15:33:28.675Z,14.06
2022-10-23T15:36:26.702Z,13.96
2022-10-23T15:39:27.623Z,13.77
2022-10-23T15:42:24.542Z,13.60
2022-10-23T15:45:21.516Z,13.40
2022-10-23T15:48:18.445Z,13.48
2022-10-23T15:51:15.350Z,13.40
2022-10-23T15:54:19.072Z,13.32
2022-10-23T15:57:15.962Z,13.19
2022-10-23T16:00:18.161Z,13.16
2022-10-23T16:03:16.500Z,13.02
2022-10-23T16:06:15.874Z,13.03
2022-10-23T16:09:13.425Z,13.07
2022-10-23T16:12:10.377Z,13.03
2022-10-23T16:15:08.261Z,13.01
2022-10-23T16:18:05.432Z,12.82
2022-10-23T16:21:02.355Z,12.88
2022-10-23T16:24:01.858Z,12.90
2022-10-23T16:26:59.268Z,13.06
2022-10-23T16:29:56.184Z,12.96
2022-10-23T16:32:54.824Z,12.97
2022-10-23T16:35:51.669Z,12.97
2022-10-23T16:38:48.595Z,13.04
2022-10-23T16:41:45.503Z,13.12
2022-10-23T16:44:42.356Z,13.18
2022-10-23T16:47:39.192Z,12.95
2022-10-23T16:53:44.451Z,12.86
2022-10-23T16:56:41.666Z,13.34
2022-10-23T16:59:38.683Z,13.62
2022-10-23T17:02:36.570Z,13.31
2022-10-23T17:05:34.986Z,13.43
2022-10-23T17:08:32.383Z,13.59
2022-10-23T17:11:35.755Z,13.41
2022-10-23T17:14:32.721Z,13.53
2022-10-23T17:17:29.580Z,13.49
2022-10-23T17:20:26.410Z,13.95
2022-10-23T17:23:23.324Z,14.09
2022-10-23T17:26:22.065Z,13.64
2022-10-23T17:29:19.037Z,14.18
2022-10-23T17:32:16.063Z,13.93
2022-10-23T17:35:13.173Z,14.21
2022-10-23T17:38:10.072Z,14.05
2022-10-23T17:41:08.323Z,14.09
2022-10-23T17:44:05.260Z,13.83
2022-10-23T17:47:02.202Z,13.71
2022-10-23T17:49:59.084Z,13.62
2022-10-23T17:52:55.902Z,13.40
2022-10-23T17:55:52.772Z,13.30
2022-10-23T17:58:51.624Z,13.37
2022-10-23T18:01:49.516Z,13.18
2022-10-23T18:04:46.508Z,13.21
2022-10-23T18:07:43.685Z,13.26
2022-10-23T18:10:40.720Z,13.18
2022-10-23T18:13:37.832Z,13.19
2022-10-23T18:16:37.191Z,13.09
2022-10-23T18:19:34.263Z,13.22
2022-10-23T18:22:33.156Z,13.40
2022-10-23T18:25:30.066Z,13.21
2022-10-23T18:28:28.526Z,13.20
2022-10-23T18:31:30.331Z,13.07
2022-10-23T18:34:27.197Z,12.96
2022-10-23T18:37:26.788Z,12.96
2022-10-23T18:40:27.979Z,12.90
2022-10-23T18:43:42.477Z,12.80
2022-10-23T18:46:40.468Z,12.87
2022-10-23T18:49:37.288Z,13.08
2022-10-23T18:52:34.273Z,13.01
2022-10-23T18:55:31.254Z,13.07
2022-10-23T18:58:28.160Z,13.27
2022-10-23T19:01:27.220Z,13.45
2022-10-23T19:04:24.315Z,13.59
2022-10-23T19:07:21.703Z,13.24
2022-10-23T19:10:20.854Z,13.77
2022-10-23T19:13:17.676Z,13.83
2022-10-23T19:16:52.999Z,13.70
2022-10-23T19:20:01.785Z,13.74
2022-10-23T19:23:00.398Z,13.54
2022-10-23T19:25:57.549Z,13.10
2022-10-23T19:28:54.380Z,13.16
2022-10-23T19:31:51.716Z,13.17
2022-10-23T19:34:48.614Z,13.12
2022-10-23T19:37:46.177Z,12.75
2022-10-23T19:40:43.244Z,12.63
2022-10-23T19:43:40.061Z,13.06
2022-10-23T19:46:37.887Z,13.01
2022-10-23T19:49:34.731Z,13.16
2022-10-23T19:52:31.619Z,12.58
2022-10-23T19:55:28.503Z,12.54
2022-10-23T19:58:25.440Z,12.60
2022-10-23T20:01:25.485Z,12.52
2022-10-23T20:04:22.423Z,12.49
2022-10-23T20:07:19.302Z,12.42
2022-10-23T20:10:16.475Z,12.44
2022-10-23T20:13:19.786Z,12.46
2022-10-23T20:16:24.234Z,12.60
2022-10-23T20:19:21.070Z,12.40
2022-10-23T20:22:18.341Z,12.38
2022-10-23T20:25:15.230Z,12.36
2022-10-23T20:28:14.389Z,12.16
2022-10-23T20:31:14.016Z,11.94
2022-10-23T20:34:12.169Z,11.93
2022-10-23T20:37:09.219Z,11.92
2022-10-23T20:40:06.854Z,11.94
2022-10-23T20:43:04.297Z,11.96
2022-10-23T20:46:09.299Z,11.99
2022-10-23T20:49:06.168Z,11.92
2022-10-23T20:52:03.136Z,11.90
2022-10-23T20:54:59.946Z,11.94
2022-10-23T20:57:56.803Z,11.86
2022-10-23T21:00:53.610Z,11.70
2022-10-23T21:03:58.462Z,11.79
2022-10-23T21:07:09.367Z,11.58
2022-10-23T21:10:07.787Z,11.58
2022-10-23T21:13:04.606Z,11.48
2022-10-23T21:16:10.770Z,11.45
2022-10-23T21:19:10.299Z,11.47
2022-10-23T21:22:07.144Z,11.38
2022-10-23T21:25:04.381Z,11.28
2022-10-23T21:28:01.191Z,11.28
2022-10-23T21:31:08.089Z,11.24
2022-10-23T21:34:05.740Z,11.29
2022-10-23T21:37:18.131Z,11.26
2022-10-23T21:40:15.138Z,11.29
2022-10-23T21:43:11.994Z,11.10
2022-10-23T21:46:16.924Z,11.13
2022-10-23T21:49:13.793Z,11.10
2022-10-23T21:52:10.690Z,11.18
2022-10-23T21:55:08.118Z,11.42
2022-10-23T21:58:04.950Z,11.33
2022-10-23T22:01:01.912Z,11.28
2022-10-23T22:03:58.795Z,11.43
2022-10-23T22:06:55.671Z,11.33
2022-10-23T22:09:52.496Z,11.21
2022-10-23T22:12:49.302Z,11.27
2022-10-23T22:15:46.120Z,11.25
2022-10-23T22:18:44.030Z,11.31
2022-10-23T22:21:41.789Z,11.36
2022-10-23T22:24:38.631Z,11.18
2022-10-23T22:27:38.237Z,11.32
2022-10-23T22:30:37.969Z,11.24
2022-10-23T22:33:34.788Z,11.19
2022-10-23T22:36:31.662Z,11.17
2022-10-23T22:39:28.499Z,11.29
2022-10-23T22:42:25.377Z,11.26
2022-10-23T22:45:22.191Z,11.12
2022-10-23T22:48:19.023Z,11.02
2022-10-23T22:51:20.268Z,11.05
2022-10-23T22:54:17.130Z,11.11
2022-10-23T22:57:14.058Z,11.13
2022-10-23T23:00:11.730Z,11.11
2022-10-23T23:03:08.626Z,11.14
2022-10-23T23:06:07.460Z,11.02
2022-10-23T23:09:04.533Z,11.14
2022-10-23T23:12:01.440Z,11.08
2022-10-23T23:15:00.252Z,11.02
2022-10-23T23:17:57.439Z,11.11
2022-10-23T23:20:54.306Z,11.18
2022-10-23T23:23:51.209Z,11.22
2022-10-23T23:26:48.032Z,11.13
2022-10-23T23:29:44.874Z,11.77
2022-10-23T23:32:41.987Z,11.21
2022-10-23T23:35:44.628Z,11.47
2022-10-23T23:38:41.994Z,11.65
2022-10-23T23:41:38.979Z,12.17
2022-10-23T23:44:41.954Z,11.86
2022-10-23T23:47:47.420Z,12.02
2022-10-23T23:50:44.513Z,12.41
2022-10-23T23:53:41.386Z,12.22
2022-10-23T23:56:38.308Z,12.50
2022-10-23T23:59:40.389Z,12.23
